createdAt,value
2023-04-22T05:02:57.583Z,10.47
2023-04-22T05:07:59.547Z,10.53
2023-04-22T05:13:04.138Z,10.58
2023-04-22T05:18:06.697Z,10.58
2023-04-22T05:23:08.363Z,10.60
2023-04-22T05:28:09.966Z,10.62
2023-04-22T05:33:19.661Z,10.64
2023-04-22T05:38:21.181Z,10.70
2023-04-22T05:43:23.455Z,10.77
2023-04-22T05:48:34.363Z,10.83
2023-04-22T05:53:42.032Z,10.93
2023-04-22T05:58:44.982Z,11.03
2023-04-22T06:03:51.864Z,11.15
2023-04-22T06:08:53.786Z,11.24
2023-04-22T06:13:55.400Z,11.36
2023-04-22T06:18:57.146Z,11.50
2023-04-22T06:24:04.270Z,11.64
2023-04-22T06:29:05.967Z,11.77
2023-04-22T06:34:08.950Z,11.90
2023-04-22T06:39:11.052Z,12.04
2023-04-22T06:44:22.724Z,12.18
2023-04-22T06:49:53.524Z,12.34
2023-04-22T06:55:17.773Z,12.49
2023-04-22T07:00:20.190Z,12.64
2023-04-22T07:05:21.900Z,12.83
2023-04-22T07:10:24.737Z,12.98
2023-04-22T07:15:58.318Z,13.13
2023-04-22T07:20:59.877Z,13.28
2023-04-22T07:26:01.368Z,13.46
2023-04-22T07:31:03.190Z,13.60
2023-04-22T07:36:05.298Z,13.77
2023-04-22T07:41:06.760Z,13.94
2023-04-22T07:46:08.322Z,14.12
2023-04-22T07:51:09.968Z,14.30
2023-04-22T07:56:11.587Z,14.42
2023-04-22T08:01:13.053Z,14.58
2023-04-22T08:06:14.669Z,14.73
2023-04-22T08:11:16.161Z,14.85
2023-04-22T08:16:17.870Z,14.97
2023-04-22T08:21:19.322Z,15.08
2023-04-22T08:26:21.198Z,15.23
2023-04-22T08:31:22.819Z,15.37
2023-04-22T08:36:25.877Z,15.53
2023-04-22T08:41:27.616Z,15.62
2023-04-22T08:46:30.827Z,15.77
2023-04-22T08:51:35.393Z,15.90
2023-04-22T08:56:40.734Z,16.13
2023-04-22T09:01:43.204Z,16.32
2023-04-22T09:06:44.727Z,16.45
2023-04-22T09:11:46.219Z,16.57
2023-04-22T09:16:48.583Z,16.72
2023-04-22T09:21:52.063Z,16.87
2023-04-22T09:26:57.275Z,16.93
2023-04-22T09:31:58.758Z,17.01
2023-04-22T09:37:00.341Z,17.13
2023-04-22T09:42:01.967Z,17.25
2023-04-22T09:47:03.513Z,17.37
2023-04-22T09:52:05.890Z,17.49
2023-04-22T09:57:13.540Z,17.55
2023-04-22T10:02:15.372Z,17.68
2023-04-22T10:07:17.470Z,17.77
2023-04-22T10:12:26.085Z,17.88
2023-04-22T10:17:33.701Z,17.99
2023-04-22T10:22:35.751Z,18.09
2023-04-22T10:27:39.097Z,18.19
2023-04-22T10:32:40.711Z,18.26
2023-04-22T10:37:43.328Z,18.34
2023-04-22T10:42:52.057Z,18.41
2023-04-22T10:47:53.713Z,18.51
2023-04-22T10:52:57.621Z,18.58
2023-04-22T10:57:59.432Z,18.65
2023-04-22T11:03:10.840Z,18.72
2023-04-22T11:08:16.584Z,18.76
2023-04-22T11:13:20.436Z,18.81
2023-04-22T11:18:26.386Z,18.92
2023-04-22T11:23:28.762Z,19.02
2023-04-22T11:28:30.717Z,19.08
2023-04-22T11:33:34.484Z,19.17
2023-04-22T11:38:36.026Z,19.18
2023-04-22T11:43:46.827Z,19.20
2023-04-22T11:48:48.279Z,19.24
2023-04-22T11:53:51.161Z,19.34
2023-04-22T11:58:52.600Z,19.39
2023-04-22T12:04:00.816Z,19.47
2023-04-22T12:09:02.574Z,19.54
2023-04-22T12:14:11.486Z,19.61
2023-04-22T12:19:13.236Z,19.67
2023-04-22T12:24:15.013Z,19.72
2023-04-22T12:29:16.440Z,19.80
2023-04-22T12:34:17.935Z,19.91
2023-04-22T12:39:19.717Z,20.03
2023-04-22T12:44:22.512Z,20.13
2023-04-22T12:49:25.954Z,20.19
2023-04-22T12:54:27.410Z,20.29
2023-04-22T12:59:28.896Z,20.42
2023-04-22T13:04:30.456Z,20.61
2023-04-22T13:09:31.917Z,21.39
2023-04-22T13:14:33.374Z,23.49
2023-04-22T13:19:35.252Z,25.49
2023-04-22T13:24:36.805Z,27.10
2023-04-22T13:29:38.398Z,27.97
2023-04-22T13:34:40.138Z,28.45
2023-04-22T13:39:42.082Z,28.15
2023-04-22T13:44:43.703Z,27.39
2023-04-22T13:49:45.275Z,26.42
2023-04-22T13:54:46.715Z,25.52
2023-04-22T13:59:49.444Z,24.79
2023-04-22T14:04:50.961Z,24.32
2023-04-22T14:09:52.364Z,23.97
2023-04-22T14:14:53.797Z,23.71
2023-04-22T14:19:55.260Z,23.49
2023-04-22T14:24:56.782Z,23.35
2023-04-22T14:29:58.351Z,23.23
2023-04-22T14:34:59.920Z,23.25
2023-04-22T14:40:01.619Z,23.34
2023-04-22T14:45:03.368Z,23.77
2023-04-22T14:50:05.443Z,24.76
2023-04-22T14:55:19.341Z,25.87
2023-04-22T15:00:27.359Z,27.20
2023-04-22T15:05:28.803Z,28.50
2023-04-22T15:10:30.359Z,28.88
2023-04-22T15:15:31.902Z,27.77
2023-04-22T15:20:33.424Z,26.61
2023-04-22T15:25:35.624Z,25.58
2023-04-22T15:30:37.240Z,24.92
2023-04-22T15:35:38.595Z,24.47
2023-04-22T15:40:40.074Z,23.83
2023-04-22T15:45:41.780Z,23.38
2023-04-22T15:50:43.365Z,22.94
2023-04-22T15:55:45.803Z,22.67
2023-04-22T16:00:48.380Z,22.51
2023-04-22T16:05:49.935Z,22.39
2023-04-22T16:10:51.517Z,22.30
2023-04-22T16:15:53.027Z,22.34
2023-04-22T16:20:54.741Z,22.36
2023-04-22T16:25:56.190Z,22.36
2023-04-22T16:30:57.673Z,22.43
2023-04-22T16:35:59.122Z,22.60
2023-04-22T16:41:00.703Z,23.26
2023-04-22T16:46:02.473Z,23.36
2023-04-22T16:51:04.223Z,22.97
2023-04-22T16:56:05.909Z,22.50
2023-04-22T17:01:07.366Z,22.10
2023-04-22T17:06:08.844Z,21.77
2023-04-22T17:11:11.138Z,21.45
2023-04-22T17:16:12.654Z,21.15
2023-04-22T17:21:14.212Z,20.83
2023-04-22T17:26:15.860Z,20.49
2023-04-22T17:31:18.037Z,20.15
2023-04-22T17:36:20.147Z,19.83
2023-04-22T17:41:21.905Z,19.53
2023-04-22T17:46:23.356Z,19.26
2023-04-22T17:51:24.906Z,19.03
2023-04-22T17:56:26.498Z,18.81
2023-04-22T18:01:29.558Z,18.58
2023-04-22T18:06:32.339Z,18.37
2023-04-22T18:11:34.160Z,18.16
2023-04-22T18:16:35.935Z,17.97
2023-04-22T18:21:41.646Z,17.80
2023-04-22T18:26:49.177Z,17.63
2023-04-22T18:31:50.754Z,17.48
2023-04-22T18:36:52.332Z,17.36
2023-04-22T18:41:54.012Z,17.23
2023-04-22T18:46:55.620Z,17.08
2023-04-22T18:51:57.426Z,16.98
2023-04-22T18:56:58.850Z,16.94
2023-04-22T19:02:00.551Z,16.92
2023-04-22T19:07:02.032Z,16.89
2023-04-22T19:12:04.073Z,16.87
2023-04-22T19:17:05.548Z,16.84
2023-04-22T19:22:07.127Z,16.79
2023-04-22T19:27:12.308Z,16.72
2023-04-22T19:32:13.824Z,16.65
2023-04-22T19:37:15.936Z,16.59
2023-04-22T19:42:18.323Z,16.52
2023-04-22T19:47:19.826Z,16.45
2023-04-22T19:52:21.965Z,16.39
2023-04-22T19:57:23.973Z,16.34
2023-04-22T20:02:25.823Z,16.31
2023-04-22T20:07:28.542Z,16.28
2023-04-22T20:12:30.745Z,16.22
2023-04-22T20:17:35.750Z,16.13
2023-04-22T20:22:38.007Z,16.01
2023-04-22T20:27:40.058Z,15.89
2023-04-22T20:32:42.137Z,15.85
2023-04-22T20:37:46.412Z,15.81
2023-04-22T20:42:47.835Z,15.74
2023-04-22T20:47:49.315Z,15.68
2023-04-22T20:52:51.988Z,15.61
2023-04-22T20:57:53.443Z,15.55
2023-04-22T21:02:55.780Z,15.47
2023-04-22T21:07:59.971Z,15.42
2023-04-22T21:13:01.707Z,15.44
2023-04-22T21:18:04.986Z,15.45
2023-04-22T21:23:07.740Z,15.47
2023-04-22T21:28:09.558Z,15.50
2023-04-22T21:33:11.006Z,15.55
2023-04-22T21:38:13.814Z,15.60
2023-04-22T21:43:15.324Z,15.61
2023-04-22T21:48:16.901Z,15.62
2023-04-22T21:53:20.510Z,15.61
2023-04-22T21:58:22.317Z,15.60
